createdAt,value
2022-11-28T00:04:04.067Z,3.4
2022-11-28T00:13:40.965Z,3.42
2022-11-28T00:23:18.008Z,3.46
2022-11-28T00:32:54.686Z,3.48
2022-11-28T00:42:31.637Z,3.41
2022-11-28T00:52:08.577Z,3.45
2022-11-28T01:01:45.728Z,3.5
2022-11-28T01:11:22.635Z,3.51
2022-11-28T01:20:59.640Z,3.51
2022-11-28T01:30:36.614Z,3.48
2022-11-28T01:40:13.620Z,3.54
2022-11-28T01:49:50.509Z,3.69
2022-11-28T01:59:27.368Z,3.63
2022-11-28T02:09:04.215Z,3.7
2022-11-28T02:18:43.013Z,3.75
2022-11-28T02:28:18.778Z,3.85
2022-11-28T02:37:55.918Z,3.92
2022-11-28T02:47:32.717Z,3.99
2022-11-28T02:57:09.476Z,3.86
2022-11-28T03:06:46.250Z,3.87
2022-11-28T03:16:23.445Z,3.84
2022-11-28T03:26:00.128Z,3.82
2022-11-28T03:45:13.707Z,3.72
2022-11-28T03:54:50.909Z,3.72
2022-11-28T04:04:27.681Z,3.65
2022-11-28T04:14:04.727Z,3.56
2022-11-28T04:23:41.724Z,3.56
2022-11-28T04:33:18.296Z,3.47
2022-11-28T04:42:55.092Z,3.5
2022-11-28T04:52:31.842Z,3.49
2022-11-28T05:02:08.439Z,3.36
2022-11-28T05:11:44.932Z,3.19
2022-11-28T05:21:21.702Z,3.36
2022-11-28T05:30:58.550Z,3.35
2022-11-28T05:40:35.276Z,3.38
2022-11-28T05:50:12.011Z,3.38
2022-11-28T05:59:48.817Z,3.48
2022-11-28T06:09:26.259Z,3.58
2022-11-28T06:19:02.417Z,3.67
2022-11-28T06:28:39.602Z,3.59
2022-11-28T06:38:16.154Z,3.5
2022-11-28T06:47:53.182Z,3.37
2022-11-28T06:57:29.664Z,3.26
2022-11-28T07:07:06.647Z,3.27
2022-11-28T07:16:43.413Z,3.51
2022-11-28T07:26:20.475Z,3.66
2022-11-28T07:35:57.626Z,3.83
2022-11-28T07:45:53.672Z,4.04
2022-11-28T07:55:12.439Z,4.25
2022-11-28T08:04:52.795Z,4.29
2022-11-28T08:14:26.541Z,4.33
2022-11-28T08:24:03.619Z,4.49
2022-11-28T08:33:40.312Z,4.64
2022-11-28T08:43:17.406Z,4.9
2022-11-28T08:52:55.109Z,4.91
2022-11-28T09:02:32.927Z,5.17
2022-11-28T09:12:10.826Z,5.33
2022-11-28T09:21:50.928Z,5.57
2022-11-28T09:31:25.910Z,5.91
2022-11-28T09:41:03.563Z,6.22
2022-11-28T09:50:40.426Z,6.47
2022-11-28T10:00:16.896Z,6.38
2022-11-28T10:09:53.813Z,6.29
2022-11-28T10:19:53.185Z,6.47
2022-11-28T10:29:08.452Z,6.53
2022-11-28T10:38:45.267Z,6.51
2022-11-28T10:57:59.369Z,6.44
2022-11-28T11:07:36.611Z,6.67
2022-11-28T11:17:14.378Z,6.83
2022-11-28T11:26:51.772Z,6.67
2022-11-28T11:36:28.439Z,6.73
2022-11-28T11:46:05.930Z,6.78
2022-11-28T11:55:42.974Z,6.77
2022-11-28T12:05:20.281Z,6.73
2022-11-28T12:24:34.805Z,6.68
2022-11-28T12:34:12.436Z,6.96
2022-11-28T12:43:49.174Z,7.07
2022-11-28T12:53:26.329Z,6.82
2022-11-28T13:03:02.736Z,6.95
2022-11-28T13:12:39.282Z,6.89
2022-11-28T13:22:14.105Z,6.73
2022-11-28T13:31:51.224Z,6.71
2022-11-28T13:42:01.470Z,6.66
2022-11-28T13:51:06.506Z,6.68
2022-11-28T14:00:42.308Z,6.55
2022-11-28T14:10:18.937Z,6.29
2022-11-28T14:19:55.492Z,6.09
2022-11-28T14:29:32.031Z,6.08
2022-11-28T14:39:08.873Z,5.96
2022-11-28T14:48:45.445Z,5.86
2022-11-28T14:58:21.751Z,5.71
2022-11-28T15:07:57.930Z,5.63
2022-11-28T15:17:34.343Z,5.51
2022-11-28T15:27:11.094Z,5.47
2022-11-28T15:36:47.704Z,5.31
2022-11-28T15:46:24.385Z,5.21
2022-11-28T15:56:00.947Z,5.14
2022-11-28T16:05:37.670Z,5.12
2022-11-28T16:15:15.996Z,5.06
2022-11-28T16:24:51.741Z,4.96
2022-11-28T16:34:28.898Z,4.92
2022-11-28T16:44:05.624Z,4.75
2022-11-28T16:53:42.771Z,4.64
2022-11-28T17:03:19.639Z,4.64
2022-11-28T17:12:56.750Z,4.56
2022-11-28T17:22:37.432Z,4.56
2022-11-28T17:32:10.658Z,4.53
2022-11-28T17:41:47.691Z,4.64
2022-11-28T17:51:25.053Z,4.77
2022-11-28T18:01:01.997Z,4.86
2022-11-28T18:10:38.899Z,4.84
2022-11-28T18:20:15.832Z,4.87
2022-11-28T18:29:53.018Z,4.87
2022-11-28T18:39:30.130Z,4.81
2022-11-28T18:49:06.934Z,4.86
2022-11-28T18:58:43.713Z,4.78
2022-11-28T19:08:20.676Z,4.76
2022-11-28T19:17:57.592Z,4.69
2022-11-28T19:27:34.588Z,4.64
2022-11-28T19:37:11.189Z,4.69
2022-11-28T19:46:48.124Z,4.75
2022-11-28T19:56:25.322Z,4.81
2022-11-28T20:06:02.425Z,4.77
2022-11-28T20:15:39.333Z,4.73
2022-11-28T20:25:20.572Z,4.71
2022-11-28T20:34:53.155Z,4.72
2022-11-28T20:44:30.288Z,4.75
2022-11-28T20:54:07.300Z,4.6
2022-11-28T21:03:44.037Z,4.56
2022-11-28T21:13:20.482Z,4.47
2022-11-28T21:22:59.352Z,4.51
2022-11-28T21:42:14.943Z,4.4
2022-11-28T21:51:48.488Z,4.29
2022-11-28T22:01:25.510Z,4.13
2022-11-28T22:11:02.359Z,4
2022-11-28T22:20:43.186Z,3.96
2022-11-28T22:30:16.142Z,3.86
2022-11-28T22:39:52.922Z,3.83
2022-11-28T22:49:30.133Z,3.84
2022-11-28T22:59:06.837Z,3.76
2022-11-28T23:08:43.481Z,3.7
2022-11-28T23:18:20.378Z,3.63
2022-11-28T23:27:57.281Z,3.66
2022-11-28T23:37:34.087Z,3.65
2022-11-28T23:47:11.082Z,3.67
2022-11-28T23:56:47.475Z,3.64
